createdAt,value
2023-11-18T00:02:01.223Z,2.70
2023-11-18T00:07:02.883Z,1.67
2023-11-18T00:12:05.390Z,2.20
2023-11-18T00:17:07.542Z,2.42
2023-11-18T00:22:09.566Z,2.63
2023-11-18T00:27:11.828Z,2.30
2023-11-18T00:32:13.510Z,2.67
2023-11-18T00:37:15.235Z,2.97
2023-11-18T00:42:16.808Z,2.70
2023-11-18T00:47:18.475Z,2.83
2023-11-18T00:52:20.541Z,2.80
2023-11-18T00:57:22.313Z,2.10
2023-11-18T01:02:23.962Z,2.20
2023-11-18T01:07:25.603Z,1.73
2023-11-18T01:12:27.326Z,1.83
2023-11-18T01:17:29.284Z,1.83
2023-11-18T01:22:30.900Z,1.55
2023-11-18T01:27:35.149Z,1.83
2023-11-18T01:32:36.934Z,1.58
2023-11-18T01:37:38.893Z,1.63
2023-11-18T01:42:42.676Z,2.30
2023-11-18T01:47:45.579Z,1.60
2023-11-18T01:52:48.853Z,2.20
2023-11-18T01:57:52.370Z,2.00
2023-11-18T02:02:54.079Z,2.22
2023-11-18T02:07:55.727Z,2.05
2023-11-18T02:13:00.356Z,1.77
2023-11-18T02:18:03.537Z,1.65
2023-11-18T02:23:05.417Z,2.55
2023-11-18T02:28:07.005Z,2.30
2023-11-18T02:33:23.486Z,2.35
2023-11-18T02:38:30.909Z,2.70
2023-11-18T02:43:32.537Z,2.28
2023-11-18T02:48:34.244Z,1.80
2023-11-18T02:53:35.868Z,2.00
2023-11-18T02:58:37.419Z,2.55
2023-11-18T03:03:39.007Z,1.98
2023-11-18T03:08:42.845Z,1.80
2023-11-18T03:13:44.940Z,1.80
2023-11-18T03:18:46.745Z,1.58
2023-11-18T03:23:48.431Z,1.60
2023-11-18T03:28:50.938Z,1.30
2023-11-18T03:33:53.085Z,1.52
2023-11-18T03:38:54.707Z,1.73
2023-11-18T03:43:56.343Z,1.48
2023-11-18T03:48:58.029Z,1.23
2023-11-18T03:53:59.566Z,1.35
2023-11-18T03:59:01.142Z,1.58
2023-11-18T04:04:02.756Z,1.38
2023-11-18T04:09:04.317Z,1.88
2023-11-18T04:14:06.787Z,1.15
2023-11-18T04:19:08.818Z,2.00
2023-11-18T04:24:10.789Z,1.30
2023-11-18T04:29:12.385Z,1.27
2023-11-18T04:34:14.752Z,1.95
2023-11-18T04:39:17.287Z,1.55
2023-11-18T04:44:19.162Z,1.20
2023-11-18T04:49:21.006Z,1.45
2023-11-18T04:54:22.627Z,1.67
2023-11-18T04:59:24.187Z,1.45
2023-11-18T05:04:25.807Z,1.50
2023-11-18T05:09:27.502Z,2.00
2023-11-18T05:14:30.103Z,1.48
2023-11-18T05:19:31.705Z,1.27
2023-11-18T05:24:33.337Z,1.50
2023-11-18T05:29:35.472Z,1.27
2023-11-18T05:34:37.149Z,0.98
2023-11-18T05:39:44.209Z,1.42
2023-11-18T05:44:45.897Z,1.40
2023-11-18T05:49:47.496Z,1.55
2023-11-18T05:54:49.073Z,1.42
2023-11-18T05:59:50.707Z,1.73
2023-11-18T06:04:52.390Z,1.42
2023-11-18T06:09:53.965Z,1.60
2023-11-18T06:14:55.764Z,1.40
2023-11-18T06:19:57.422Z,1.40
2023-11-18T06:24:59.076Z,1.83
2023-11-18T06:30:00.945Z,1.52
2023-11-18T06:35:02.571Z,1.83
2023-11-18T06:40:07.841Z,1.55
2023-11-18T06:45:10.899Z,1.67
2023-11-18T06:50:17.120Z,1.65
2023-11-18T06:55:18.935Z,1.38
2023-11-18T07:00:21.895Z,1.52
2023-11-18T07:05:25.230Z,1.42
2023-11-18T07:10:28.806Z,1.55
2023-11-18T07:15:30.534Z,1.45
2023-11-18T07:20:32.342Z,1.45
2023-11-18T07:25:35.412Z,0.85
2023-11-18T07:30:38.275Z,0.93
2023-11-18T07:35:39.822Z,0.95
2023-11-18T07:40:47.168Z,0.90
2023-11-18T07:45:53.533Z,0.40
2023-11-18T07:50:55.142Z,0.98
2023-11-18T07:55:56.939Z,1.02
2023-11-18T08:01:00.668Z,0.68
2023-11-18T08:06:03.548Z,1.00
2023-11-18T08:11:06.000Z,0.70
2023-11-18T08:16:11.157Z,0.77
2023-11-18T08:21:13.580Z,0.60
2023-11-18T08:26:15.210Z,0.70
2023-11-18T08:31:19.759Z,1.13
2023-11-18T08:36:21.902Z,0.73
2023-11-18T08:41:23.743Z,1.27
2023-11-18T08:46:55.117Z,0.90
2023-11-18T08:51:59.605Z,1.20
2023-11-18T08:57:03.012Z,0.90
2023-11-18T09:02:07.268Z,1.00
2023-11-18T09:07:11.184Z,0.57
2023-11-18T09:12:13.798Z,0.73
2023-11-18T09:17:16.245Z,0.70
2023-11-18T09:22:20.058Z,1.05
2023-11-18T09:27:21.622Z,1.02
2023-11-18T09:32:27.332Z,0.77
2023-11-18T09:37:29.070Z,0.82
2023-11-18T09:42:31.307Z,0.63
2023-11-18T09:47:44.214Z,0.73
2023-11-18T09:52:53.137Z,0.90
2023-11-18T09:57:58.967Z,0.50
2023-11-18T10:03:03.742Z,0.93
2023-11-18T10:08:08.747Z,0.80
2023-11-18T10:13:22.970Z,0.98
2023-11-18T10:18:25.586Z,0.80
2023-11-18T10:23:29.108Z,0.90
2023-11-18T10:28:39.039Z,0.95
2023-11-18T10:38:51.082Z,0.60
2023-11-18T10:44:09.008Z,0.90
2023-11-18T10:49:11.435Z,0.75
2023-11-18T10:54:18.593Z,1.30
2023-11-18T10:59:20.896Z,1.00
2023-11-18T11:04:22.613Z,0.80
2023-11-18T11:09:36.857Z,0.93
2023-11-18T11:14:43.139Z,0.90
2023-11-18T11:19:58.525Z,0.50
2023-11-18T11:25:00.438Z,1.02
2023-11-18T11:30:14.705Z,0.70
2023-11-18T11:35:22.123Z,1.00
2023-11-18T11:40:24.011Z,0.77
2023-11-18T11:45:29.841Z,0.77
2023-11-18T11:50:36.254Z,1.02
2023-11-18T11:55:37.843Z,0.68
2023-11-18T12:00:43.556Z,0.85
2023-11-18T12:05:45.238Z,0.65
2023-11-18T12:10:55.104Z,0.60
2023-11-18T12:16:05.313Z,0.50
2023-11-18T12:21:09.269Z,0.60
2023-11-18T12:26:29.723Z,0.55
2023-11-18T12:31:40.845Z,0.50
2023-11-18T12:36:57.708Z,0.63
2023-11-18T12:42:07.948Z,0.70
2023-11-18T12:47:16.375Z,0.88
2023-11-18T12:52:20.293Z,0.73
2023-11-18T12:57:24.216Z,0.85
2023-11-18T13:02:26.301Z,0.55
2023-11-18T13:07:28.055Z,0.55
2023-11-18T13:12:29.845Z,0.73
2023-11-18T13:17:31.755Z,0.90
2023-11-18T13:22:42.654Z,0.88
2023-11-18T13:27:49.217Z,0.80
2023-11-18T13:32:50.989Z,0.55
2023-11-18T13:37:54.919Z,1.00
2023-11-18T13:43:04.225Z,0.82
2023-11-18T13:48:06.156Z,0.60
2023-11-18T13:53:07.815Z,0.73
2023-11-18T13:58:11.910Z,0.73
2023-11-18T14:03:13.832Z,0.98
2023-11-18T14:08:18.440Z,0.90
2023-11-18T14:13:20.829Z,0.80
2023-11-18T14:18:23.393Z,0.88
2023-11-18T14:23:26.362Z,0.68
2023-11-18T14:28:28.858Z,0.93
2023-11-18T14:33:30.555Z,0.77
2023-11-18T14:38:32.163Z,0.68
2023-11-18T14:43:34.891Z,0.65
2023-11-18T14:48:36.466Z,0.68
2023-11-18T14:53:38.805Z,0.70
2023-11-18T14:58:40.474Z,0.80
2023-11-18T15:03:42.371Z,0.73
2023-11-18T15:08:46.549Z,0.93
2023-11-18T15:13:48.332Z,0.82
2023-11-18T15:18:53.572Z,0.40
2023-11-18T15:24:00.601Z,0.80
2023-11-18T15:29:04.300Z,0.82
2023-11-18T15:34:05.874Z,1.65
2023-11-18T15:39:07.904Z,0.90
2023-11-18T15:44:12.612Z,0.93
2023-11-18T15:49:14.203Z,0.90
2023-11-18T15:54:16.596Z,0.88
2023-11-18T15:59:18.185Z,1.00
2023-11-18T16:04:20.043Z,0.70
2023-11-18T16:09:21.937Z,1.13
2023-11-18T16:14:23.747Z,0.85
2023-11-18T16:19:25.407Z,1.10
2023-11-18T16:24:27.451Z,0.93
2023-11-18T16:29:29.093Z,1.25
2023-11-18T16:34:30.739Z,1.20
2023-11-18T16:39:32.467Z,1.05
2023-11-18T16:44:34.209Z,0.50
2023-11-18T16:49:35.851Z,0.47
2023-11-18T16:54:41.402Z,0.70
2023-11-18T16:59:44.282Z,0.82
2023-11-18T17:04:46.080Z,1.02
2023-11-18T17:09:47.706Z,0.90
2023-11-18T17:14:49.952Z,0.65
2023-11-18T17:19:52.090Z,1.15
2023-11-18T17:24:55.609Z,1.20
2023-11-18T17:29:57.221Z,0.80
2023-11-18T17:35:00.545Z,0.95
2023-11-18T17:40:02.268Z,0.60
2023-11-18T17:45:06.642Z,1.08
2023-11-18T17:50:16.508Z,1.00
2023-11-18T18:00:24.962Z,0.80
2023-11-18T18:05:27.221Z,1.05
2023-11-18T18:10:29.715Z,1.00
2023-11-18T18:15:31.404Z,0.77
2023-11-18T18:20:33.105Z,1.00
2023-11-18T18:25:34.960Z,0.80
2023-11-18T18:30:38.041Z,0.80
2023-11-18T18:35:40.898Z,0.57
2023-11-18T18:40:42.700Z,0.80
2023-11-18T18:45:44.322Z,0.68
2023-11-18T18:50:47.121Z,0.82
2023-11-18T18:55:48.988Z,0.82
2023-11-18T19:00:52.176Z,1.10
2023-11-18T19:05:53.787Z,0.57
2023-11-18T19:10:55.384Z,0.77
2023-11-18T19:15:57.479Z,1.15
2023-11-18T19:20:59.095Z,0.77
2023-11-18T19:26:00.773Z,0.82
2023-11-18T19:31:02.397Z,1.17
2023-11-18T19:36:04.702Z,1.05
2023-11-18T19:41:06.856Z,0.63
2023-11-18T19:46:10.996Z,0.77
2023-11-18T19:51:13.898Z,0.75
2023-11-18T19:56:15.845Z,0.90
2023-11-18T20:01:19.404Z,0.65
2023-11-18T20:06:21.648Z,0.85
2023-11-18T20:11:23.285Z,1.10
2023-11-18T20:16:25.299Z,0.93
2023-11-18T20:21:26.969Z,0.82
2023-11-18T20:26:30.425Z,1.05
2023-11-18T20:31:32.114Z,0.73
2023-11-18T20:36:33.729Z,0.63
2023-11-18T20:41:35.400Z,0.75
2023-11-18T20:46:37.026Z,0.60
2023-11-18T20:51:38.837Z,0.60
2023-11-18T20:56:40.480Z,0.65
2023-11-18T21:01:42.075Z,0.93
2023-11-18T21:06:43.758Z,0.77
2023-11-18T21:11:45.351Z,0.60
2023-11-18T21:16:47.481Z,0.73
2023-11-18T21:21:49.246Z,0.88
2023-11-18T21:26:51.076Z,0.90
2023-11-18T21:31:52.673Z,0.70
2023-11-18T21:36:54.307Z,0.57
2023-11-18T21:41:55.944Z,0.70
2023-11-18T21:46:58.210Z,1.00
2023-11-18T21:51:59.802Z,0.82
2023-11-18T21:57:01.376Z,1.08
2023-11-18T22:02:04.136Z,0.80
2023-11-18T22:07:08.582Z,0.63
2023-11-18T22:12:10.229Z,0.65
2023-11-18T22:17:12.249Z,0.80
2023-11-18T22:22:13.871Z,0.90
2023-11-18T22:27:15.673Z,0.90
2023-11-18T22:32:18.094Z,0.80
2023-11-18T22:37:19.712Z,0.80
2023-11-18T22:42:21.618Z,0.47
2023-11-18T22:47:23.246Z,0.75
2023-11-18T22:52:26.977Z,0.85
2023-11-18T22:57:28.543Z,0.88
2023-11-18T23:02:32.857Z,0.55
2023-11-18T23:07:34.511Z,0.98
2023-11-18T23:12:36.162Z,0.85
2023-11-18T23:17:38.097Z,0.77
2023-11-18T23:22:40.117Z,0.60
2023-11-18T23:27:42.366Z,0.63
2023-11-18T23:32:43.936Z,0.90
2023-11-18T23:37:46.654Z,0.57
2023-11-18T23:42:49.266Z,0.98
2023-11-18T23:47:52.645Z,1.13
2023-11-18T23:52:54.957Z,0.70
2023-11-18T23:57:56.724Z,0.75
